Time;durP1;ratioP1;P1;durP2;ratioP2;P2;SDS_P1;SDS_P2;PMS_P1;PMS_P2;Temp;Humidity;BMP_temperature;BMP_pressure;BME280_temperature;BME280_humidity;BME280_pressure;Samples;Min_cycle;Max_cycle;Signal;HPM_P1;HPM_P2
2022/06/01 00:02:19;;;;;;;0.77;0.60;;;17.90;49.60;;;;;;6127109;23;20027;-89
2022/06/01 00:04:45;;;;;;;1.17;0.70;;;17.90;49.10;;;;;;6151666;23;20482;-88
2022/06/01 00:07:11;;;;;;;1.08;0.68;;;17.90;49.10;;;;;;6153131;23;20471;-89
2022/06/01 00:09:36;;;;;;;1.55;0.80;;;17.80;49.10;;;;;;6125398;23;20119;-89
2022/06/01 00:12:03;;;;;;;2.47;0.90;;;17.80;49.20;;;;;;6152357;23;20008;-89
2022/06/01 00:14:29;;;;;;;0.65;0.63;;;17.70;49.20;;;;;;6126286;23;20015;-89
2022/06/01 00:16:57;;;;;;;1.50;0.73;;;17.50;49.10;;;;;;6128799;23;20425;-89
2022/06/01 00:19:22;;;;;;;1.20;0.70;;;17.70;49.30;;;;;;6153629;23;20005;-89
2022/06/01 00:24:33;;;;;;;1.33;0.88;;;17.60;49.20;;;;;;6159462;23;20047;-89
2022/06/01 00:26:59;;;;;;;1.25;0.80;;;17.60;49.20;;;;;;6127352;23;20004;-89
2022/06/01 00:29:24;;;;;;;1.33;0.73;;;17.60;49.20;;;;;;6153052;23;20444;-89
2022/06/01 00:31:50;;;;;;;1.05;0.60;;;17.60;49.20;;;;;;6151259;23;20101;-89
2022/06/01 00:34:16;;;;;;;1.25;0.60;;;17.70;49.20;;;;;;6125166;23;20008;-88
2022/06/01 00:36:42;;;;;;;1.17;0.70;;;17.60;49.20;;;;;;6153676;23;20092;-89
2022/06/01 00:39:07;;;;;;;2.00;0.70;;;17.60;49.20;;;;;;6128478;23;20012;-89
2022/06/01 00:41:33;;;;;;;1.17;0.73;;;17.50;49.20;;;;;;6150746;23;20021;-89
2022/06/01 00:43:59;;;;;;;1.58;0.80;;;17.50;49.30;;;;;;6128452;23;20027;-89
2022/06/01 00:46:24;;;;;;;1.80;0.82;;;17.40;49.20;;;;;;6125178;23;20044;-88
2022/06/01 00:48:55;;;;;;;3.40;0.75;;;17.40;49.30;;;;;;6152754;23;20016;-89
2022/06/01 00:51:25;;;;;;;1.45;0.73;;;17.40;49.30;;;;;;6152293;23;20324;-89
2022/06/01 00:53:52;;;;;;;1.42;0.60;;;17.40;49.30;;;;;;6128746;23;20364;-89
2022/06/01 00:56:42;;;;;;;2.15;0.93;;;17.30;49.40;;;;;;6151792;23;20070;-88
2022/06/01 00:59:13;;;;;;;1.52;0.77;;;17.40;49.40;;;;;;6151528;23;20392;-89
2022/06/01 01:01:40;;;;;;;2.17;0.80;;;17.20;49.30;;;;;;6130109;23;20523;-87
2022/06/01 01:04:06;;;;;;;1.60;0.60;;;17.20;49.40;;;;;;6130320;23;20012;-87
2022/06/01 01:06:37;;;;;;;1.45;0.73;;;17.10;49.40;;;;;;6128228;23;20025;-88
2022/06/01 01:09:06;;;;;;;1.33;0.75;;;17.10;49.50;;;;;;6130520;23;20031;-87
2022/06/01 01:11:52;;;;;;;1.67;0.82;;;17.10;49.50;;;;;;6129016;23;20024;-88
2022/06/01 01:14:25;;;;;;;0.93;0.80;;;17.10;49.40;;;;;;6181239;23;20051;-87
2022/06/01 01:16:52;;;;;;;0.80;0.68;;;17.10;49.30;;;;;;6130204;23;20013;-86
2022/06/01 01:19:26;;;;;;;0.77;0.52;;;17.10;49.20;;;;;;6156276;23;20008;-87
2022/06/01 01:22:14;;;;;;;1.48;0.60;;;17.40;49.30;;;;;;6151394;23;20555;-87
2022/06/01 01:25:28;;;;;;;1.55;0.70;;;17.20;49.30;;;;;;6177702;23;20020;-87
2022/06/01 01:27:58;;;;;;;1.77;0.88;;;17.20;49.30;;;;;;6152844;23;20040;-87
2022/06/01 01:30:52;;;;;;;1.75;0.80;;;17.10;49.10;;;;;;6152207;23;20071;-87
2022/06/01 01:33:23;;;;;;;1.95;0.70;;;17.10;49.20;;;;;;6131439;23;20005;-88
2022/06/01 01:35:53;;;;;;;2.97;0.75;;;17.10;49.30;;;;;;6130652;23;20347;-86
2022/06/01 01:38:33;;;;;;;1.05;0.65;;;17.10;49.30;;;;;;6129099;23;20000;-86
2022/06/01 01:41:23;;;;;;;4.70;0.90;;;17.00;49.30;;;;;;6152883;23;20071;-87
2022/06/01 01:44:19;;;;;;;2.72;0.82;;;17.00;49.30;;;;;;6179744;23;20098;-87
2022/06/01 01:46:49;;;;;;;2.47;0.75;;;17.00;49.20;;;;;;6156429;23;20018;-87
2022/06/01 01:49:23;;;;;;;1.40;0.50;;;16.90;49.20;;;;;;6155135;23;20482;-87
2022/06/01 01:51:53;;;;;;;1.15;0.70;;;16.80;49.10;;;;;;6154756;23;20460;-87
2022/06/01 01:54:31;;;;;;;1.05;0.68;;;16.80;49.10;;;;;;6130756;23;20008;-87
2022/06/01 01:57:03;;;;;;;3.17;0.80;;;16.90;49.10;;;;;;6176256;23;20013;-87
2022/06/01 02:00:10;;;;;;;1.02;0.70;;;16.90;49.10;;;;;;6203948;23;20077;-87
2022/06/01 02:03:11;;;;;;;1.67;0.73;;;16.90;49.10;;;;;;6158813;23;20107;-87
2022/06/01 02:06:15;;;;;;;1.80;0.80;;;16.90;49.10;;;;;;6132189;23;20074;-87
2022/06/01 02:08:48;;;;;;;2.35;0.75;;;16.80;49.10;;;;;;6178292;23;20344;-87
2022/06/01 02:14:42;;;;;;;2.78;0.93;;;16.80;49.00;;;;;;6164198;23;20047;-87
2022/06/01 02:17:10;;;;;;;2.25;0.85;;;16.70;49.00;;;;;;6177249;23;20040;-87
2022/06/01 02:19:50;;;;;;;1.38;0.68;;;16.60;49.00;;;;;;6128343;23;20005;-87
2022/06/01 02:22:16;;;;;;;1.10;0.60;;;16.60;49.10;;;;;;6154014;23;20021;-87
2022/06/01 02:24:43;;;;;;;1.42;0.70;;;16.80;49.30;;;;;;6154711;23;20032;-88
2022/06/01 02:27:11;;;;;;;1.38;0.60;;;16.40;49.30;;;;;;6127218;23;20468;-87
2022/06/01 02:29:59;;;;;;;1.77;0.77;;;16.40;49.30;;;;;;6104146;23;20080;-87
2022/06/01 02:32:26;;;;;;;1.42;0.60;;;16.40;49.20;;;;;;6119783;23;20025;-86
2022/06/01 02:34:53;;;;;;;1.27;0.70;;;16.40;49.20;;;;;;6120692;23;20508;-87
2022/06/01 02:37:19;;;;;;;1.65;0.73;;;16.50;49.10;;;;;;6093800;23;20092;-87
2022/06/01 02:39:52;;;;;;;1.05;0.60;;;16.50;49.00;;;;;;6118066;23;20083;-87
2022/06/01 02:42:25;;;;;;;1.00;0.63;;;16.50;48.80;;;;;;6139560;23;20584;-87
2022/06/01 02:44:58;;;;;;;1.48;0.55;;;16.50;48.80;;;;;;6119708;23;20009;-87
2022/06/01 02:47:24;;;;;;;1.38;0.70;;;16.50;48.70;;;;;;6119555;23;20476;-87
2022/06/01 02:49:50;;;;;;;1.05;0.60;;;16.60;48.60;;;;;;6118077;23;20345;-87
2022/06/01 02:52:16;;;;;;;0.77;0.38;;;16.60;48.70;;;;;;6115500;23;20017;-87
2022/06/01 02:54:42;;;;;;;1.33;0.70;;;16.50;48.60;;;;;;6118152;23;20006;-87
2022/06/01 02:57:08;;;;;;;1.00;0.63;;;16.50;48.70;;;;;;6117612;23;20017;-87
2022/06/01 02:59:34;;;;;;;1.58;0.93;;;16.40;48.80;;;;;;6094189;23;20040;-87
2022/06/01 03:02:00;;;;;;;2.22;0.70;;;16.30;48.90;;;;;;6115724;23;20025;-86
2022/06/01 03:04:29;;;;;;;0.90;0.70;;;16.20;49.00;;;;;;6114914;23;20010;-87
2022/06/01 03:06:55;;;;;;;1.50;0.77;;;16.10;48.90;;;;;;6141344;23;20485;-87
2022/06/01 03:09:21;;;;;;;1.58;0.80;;;16.10;48.90;;;;;;6116864;23;20005;-87
2022/06/01 03:11:47;;;;;;;1.02;0.55;;;16.10;48.90;;;;;;6140903;23;20018;-88
2022/06/01 03:14:13;;;;;;;1.20;0.70;;;16.10;49.00;;;;;;6116749;23;20013;-87
2022/06/01 03:16:38;;;;;;;1.65;0.75;;;16.10;49.10;;;;;;6117423;23;20017;-87
2022/06/01 03:19:05;;;;;;;1.45;0.70;;;16.00;49.10;;;;;;6116975;23;20005;-87
2022/06/01 03:21:32;;;;;;;2.53;1.00;;;15.90;49.10;;;;;;6093097;23;20092;-86
2022/06/01 03:23:57;;;;;;;0.77;0.43;;;15.90;49.20;;;;;;6119841;23;20121;-87
2022/06/01 03:26:24;;;;;;;0.75;0.60;;;15.80;49.30;;;;;;6116187;23;20017;-87
2022/06/01 03:28:50;;;;;;;2.90;0.68;;;15.70;49.40;;;;;;6117481;23;20026;-87
2022/06/01 03:31:16;;;;;;;1.10;0.80;;;15.70;49.40;;;;;;6118464;23;20104;-87
2022/06/01 03:33:42;;;;;;;2.15;0.70;;;15.70;49.40;;;;;;6119273;23;20016;-88
2022/06/01 03:36:10;;;;;;;1.85;0.80;;;15.70;49.30;;;;;;6118322;23;20072;-87
2022/06/01 03:38:36;;;;;;;1.52;0.70;;;15.70;49.30;;;;;;6118996;23;20005;-87
2022/06/01 03:41:03;;;;;;;1.27;0.60;;;15.80;49.20;;;;;;6117751;23;20014;-86
2022/06/01 03:43:29;;;;;;;1.60;1.00;;;15.80;49.10;;;;;;6117325;23;20087;-87
2022/06/01 03:45:58;;;;;;;2.28;0.82;;;15.80;49.10;;;;;;6119134;23;20076;-87
2022/06/01 03:48:28;;;;;;;1.13;0.70;;;15.80;49.20;;;;;;6121401;23;20057;-87
2022/06/01 03:50:55;;;;;;;1.40;0.70;;;15.80;49.20;;;;;;6142456;23;20017;-87
2022/06/01 03:53:23;;;;;;;1.00;0.80;;;15.80;49.20;;;;;;6117134;23;20481;-88
2022/06/01 03:55:49;;;;;;;1.23;0.70;;;15.80;49.10;;;;;;6143515;23;20092;-87
2022/06/01 03:58:20;;;;;;;0.93;0.68;;;15.80;49.20;;;;;;6118084;23;20014;-87
2022/06/01 04:00:47;;;;;;;1.00;0.70;;;15.70;49.20;;;;;;6094076;23;20670;-87
2022/06/01 04:03:14;;;;;;;0.80;0.80;;;15.60;49.20;;;;;;6119565;23;20384;-88
2022/06/01 04:05:39;;;;;;;1.27;0.68;;;15.60;49.30;;;;;;6116182;23;20433;-88
2022/06/01 04:08:06;;;;;;;1.38;0.90;;;15.50;49.20;;;;;;6120293;23;20038;-88
2022/06/01 04:10:34;;;;;;;1.33;0.75;;;15.50;49.20;;;;;;6118306;23;20065;-88
2022/06/01 04:13:00;;;;;;;1.40;0.80;;;15.50;49.20;;;;;;6118906;23;20132;-88
2022/06/01 04:15:26;;;;;;;1.65;0.90;;;15.50;49.30;;;;;;6117596;23;20021;-88
2022/06/01 04:17:52;;;;;;;1.38;0.70;;;15.50;49.40;;;;;;6118215;23;20020;-88
2022/06/01 04:20:18;;;;;;;1.50;0.90;;;15.50;49.40;;;;;;6142399;23;20032;-88
2022/06/01 04:22:44;;;;;;;1.73;0.80;;;15.40;49.40;;;;;;6142608;23;20006;-89
2022/06/01 04:25:15;;;;;;;1.10;0.80;;;15.40;49.30;;;;;;6115429;23;20001;-88
2022/06/01 04:27:41;;;;;;;0.98;0.65;;;15.40;49.30;;;;;;6128651;23;20014;-88
2022/06/01 04:30:10;;;;;;;1.77;0.90;;;15.40;49.30;;;;;;6116110;23;20024;-88
2022/06/01 04:32:36;;;;;;;1.98;1.00;;;15.40;49.30;;;;;;6092558;23;20024;-87
2022/06/01 04:35:04;;;;;;;1.63;0.90;;;15.50;49.40;;;;;;6119949;23;20337;-88
2022/06/01 04:37:30;;;;;;;1.42;0.80;;;15.50;49.40;;;;;;6118701;23;20088;-88
2022/06/01 04:39:56;;;;;;;2.17;0.70;;;15.50;49.50;;;;;;6117778;23;20032;-87
2022/06/01 04:42:22;;;;;;;2.05;0.80;;;15.40;49.40;;;;;;6117254;23;20049;-88
2022/06/01 04:44:48;;;;;;;0.68;0.60;;;15.50;49.30;;;;;;6142427;23;20394;-89
2022/06/01 04:47:14;;;;;;;1.27;0.70;;;15.50;49.40;;;;;;6118170;23;20009;-89
2022/06/01 04:49:40;;;;;;;1.40;0.80;;;15.50;49.30;;;;;;6096361;23;20449;-90
2022/06/01 04:52:07;;;;;;;1.73;0.85;;;15.50;49.30;;;;;;6119287;23;20048;-88
2022/06/01 04:54:34;;;;;;;1.85;1.05;;;15.50;49.30;;;;;;6146412;23;20018;-87
2022/06/01 04:56:59;;;;;;;2.22;0.80;;;15.50;49.30;;;;;;6147084;23;20010;-88
2022/06/01 04:59:25;;;;;;;1.50;0.88;;;15.40;49.30;;;;;;6152339;23;20009;-89
2022/06/01 05:01:51;;;;;;;1.30;1.00;;;15.40;49.50;;;;;;6100059;23;20021;-89
2022/06/01 05:04:17;;;;;;;1.80;0.82;;;15.30;49.50;;;;;;6096336;23;20021;-88
2022/06/01 05:06:43;;;;;;;1.95;1.00;;;15.30;49.70;;;;;;6117581;23;20017;-87
2022/06/01 05:09:09;;;;;;;0.75;0.65;;;15.30;49.90;;;;;;6121172;23;20013;-89
2022/06/01 05:11:34;;;;;;;2.88;1.40;;;15.30;50.00;;;;;;6143869;23;20097;-89
2022/06/01 05:14:01;;;;;;;0.85;0.70;;;15.30;50.10;;;;;;6118041;23;20112;-88
2022/06/01 05:16:27;;;;;;;2.47;1.50;;;15.30;50.20;;;;;;6119321;23;20024;-88
2022/06/01 05:18:52;;;;;;;2.20;1.08;;;15.30;50.30;;;;;;6144035;23;20021;-88
2022/06/01 05:21:19;;;;;;;2.15;1.00;;;15.30;50.30;;;;;;6119698;23;20010;-88
2022/06/01 05:23:44;;;;;;;2.95;1.17;;;15.30;51.00;;;;;;6121256;23;20472;-88
2022/06/01 05:26:10;;;;;;;2.38;0.98;;;15.30;50.60;;;;;;6118403;23;20009;-88
2022/06/01 05:28:36;;;;;;;2.08;0.93;;;15.30;50.70;;;;;;6105012;23;20036;-89
2022/06/01 05:31:11;;;;;;;1.30;0.90;;;15.30;50.90;;;;;;6146908;23;20084;-88
2022/06/01 05:33:39;;;;;;;3.83;0.95;;;15.30;51.20;;;;;;6148451;23;20016;-89
2022/06/01 05:36:06;;;;;;;2.95;1.10;;;15.40;51.20;;;;;;6173620;23;20017;-88
2022/06/01 05:38:32;;;;;;;3.20;2.05;;;15.40;51.30;;;;;;6148974;23;20013;-88
2022/06/01 05:40:57;;;;;;;4.05;0.82;;;15.40;51.40;;;;;;6148091;23;20043;-88
2022/06/01 05:43:23;;;;;;;1.73;0.90;;;15.40;51.50;;;;;;6146509;23;20012;-88
2022/06/01 05:45:49;;;;;;;1.90;0.80;;;15.40;52.20;;;;;;6118302;23;20035;-89
2022/06/01 05:48:18;;;;;;;2.60;1.13;;;15.50;51.70;;;;;;6147834;23;20389;-88
2022/06/01 05:50:44;;;;;;;3.75;1.30;;;15.50;51.80;;;;;;6123391;23;20009;-88
2022/06/01 05:53:10;;;;;;;1.48;0.93;;;15.50;51.90;;;;;;6147782;23;20093;-87
2022/06/01 05:55:37;;;;;;;1.90;1.17;;;15.50;52.00;;;;;;6145269;23;20012;-89
2022/06/01 05:58:19;;;;;;;4.22;1.50;;;15.50;52.10;;;;;;6123993;23;20064;-89
2022/06/01 06:00:46;;;;;;;4.95;1.33;;;15.60;52.30;;;;;;6143167;23;20016;-88
2022/06/01 06:03:13;;;;;;;1.63;1.00;;;15.60;52.90;;;;;;6149162;23;20020;-88
2022/06/01 06:08:24;;;;;;;1.93;1.20;;;15.70;52.80;;;;;;6151907;23;20119;-88
2022/06/01 06:10:50;;;;;;;3.20;1.33;;;15.70;52.80;;;;;;6146577;23;20005;-88
2022/06/01 06:13:16;;;;;;;4.28;1.50;;;15.80;53.00;;;;;;6146149;23;20001;-89
2022/06/01 06:15:41;;;;;;;2.28;1.15;;;15.80;53.20;;;;;;6145721;23;20091;-89
2022/06/01 06:18:11;;;;;;;5.10;1.27;;;15.80;53.30;;;;;;6147905;23;20059;-88
2022/06/01 06:20:38;;;;;;;2.35;1.02;;;15.90;53.40;;;;;;6170196;23;20015;-87
2022/06/01 06:23:05;;;;;;;3.03;1.50;;;15.90;53.60;;;;;;6121869;23;20024;-89
2022/06/01 06:25:30;;;;;;;2.22;1.00;;;15.90;53.90;;;;;;6149615;23;20009;-89
2022/06/01 06:27:56;;;;;;;3.35;1.30;;;16.00;54.10;;;;;;6169873;23;20492;-89
2022/06/01 06:30:22;;;;;;;3.47;1.38;;;16.00;54.30;;;;;;6128036;23;20012;-88
2022/06/01 06:32:48;;;;;;;2.10;0.85;;;16.10;54.50;;;;;;6149030;23;20088;-89
2022/06/01 06:35:13;;;;;;;5.43;1.30;;;16.10;54.80;;;;;;6128092;23;20008;-89
2022/06/01 06:37:39;;;;;;;3.05;1.30;;;16.10;54.90;;;;;;6151885;23;20013;-88
2022/06/01 06:40:06;;;;;;;1.85;1.00;;;16.20;55.10;;;;;;6154773;23;20008;-88
2022/06/01 06:42:32;;;;;;;2.03;1.00;;;16.20;55.20;;;;;;6125037;23;20013;-89
2022/06/01 06:44:58;;;;;;;4.85;1.50;;;16.20;55.20;;;;;;6128929;23;20015;-88
2022/06/01 06:47:24;;;;;;;2.50;1.10;;;16.30;55.30;;;;;;6150803;23;20013;-89
2022/06/01 06:49:49;;;;;;;2.15;1.20;;;16.30;55.40;;;;;;6150454;23;20016;-88
2022/06/01 06:52:15;;;;;;;1.92;1.20;;;16.70;55.60;;;;;;6153140;23;20033;-90
2022/06/01 06:54:41;;;;;;;2.05;1.00;;;16.40;55.40;;;;;;6128136;23;20005;-88
2022/06/01 06:57:07;;;;;;;4.65;1.42;;;16.40;55.40;;;;;;6149877;23;20017;-87
2022/06/01 06:59:33;;;;;;;3.80;1.25;;;16.50;55.80;;;;;;6129551;23;20015;-89
2022/06/01 07:01:59;;;;;;;3.28;1.00;;;16.50;55.70;;;;;;6124926;23;20012;-89
2022/06/01 07:04:25;;;;;;;3.45;1.05;;;16.60;55.80;;;;;;6128678;23;20009;-89
2022/06/01 07:06:51;;;;;;;2.78;1.20;;;16.60;55.90;;;;;;6125498;23;20080;-88
2022/06/01 07:09:16;;;;;;;2.30;1.13;;;16.70;55.90;;;;;;6141529;23;20025;-90
2022/06/01 07:11:42;;;;;;;4.43;1.52;;;16.80;55.90;;;;;;6140008;23;20083;-91
2022/06/01 07:14:08;;;;;;;2.33;1.30;;;16.80;55.90;;;;;;6165582;23;20001;-88
2022/06/01 07:16:35;;;;;;;2.08;1.20;;;16.80;56.00;;;;;;6153831;23;20464;-89
2022/06/01 07:19:04;;;;;;;2.03;0.90;;;16.80;55.90;;;;;;6126768;23;20482;-90
2022/06/01 07:21:30;;;;;;;2.65;1.20;;;16.90;55.80;;;;;;6127252;23;20017;-91
2022/06/01 07:23:56;;;;;;;5.32;1.38;;;16.90;55.80;;;;;;6127596;23;20015;-87
2022/06/01 07:26:26;;;;;;;2.80;1.20;;;17.00;55.90;;;;;;6128181;23;20020;-90
2022/06/01 07:28:52;;;;;;;1.63;1.05;;;17.00;55.70;;;;;;6122671;23;20027;-89
2022/06/01 07:31:18;;;;;;;2.33;0.85;;;17.00;55.50;;;;;;6151273;23;20028;-91
2022/06/01 07:33:44;;;;;;;1.25;0.70;;;17.00;55.20;;;;;;6127664;23;20019;-89
2022/06/01 07:36:13;;;;;;;3.47;1.10;;;17.10;55.10;;;;;;6130338;23;20040;-90
2022/06/01 07:44:19;;;;;;;3.00;0.73;;;17.20;54.50;;;;;;6159689;23;20067;-91
2022/06/01 07:46:46;;;;;;;3.95;1.10;;;17.20;54.50;;;;;;6152846;23;20103;-90
2022/06/01 07:49:12;;;;;;;1.08;0.70;;;17.30;54.50;;;;;;6127967;23;20055;-91
2022/06/01 07:51:38;;;;;;;2.45;0.82;;;17.30;54.30;;;;;;6154032;23;20020;-90
2022/06/01 07:54:06;;;;;;;2.30;0.90;;;17.30;54.20;;;;;;6130485;23;20083;-89
2022/06/01 07:56:32;;;;;;;3.78;1.08;;;17.30;54.20;;;;;;6151619;23;20040;-91
2022/06/01 07:58:58;;;;;;;2.08;0.90;;;17.40;54.20;;;;;;6127408;23;20008;-91
2022/06/01 08:01:27;;;;;;;1.95;1.00;;;17.40;54.10;;;;;;6149514;23;20040;-90
2022/06/01 08:03:58;;;;;;;3.25;1.10;;;17.40;54.00;;;;;;6130882;23;20115;-91
2022/06/01 08:06:25;;;;;;;1.33;0.90;;;17.50;54.00;;;;;;6127175;23;20016;-91
2022/06/01 08:08:51;;;;;;;5.22;1.20;;;17.50;54.00;;;;;;6128691;23;20008;-90
2022/06/01 08:11:17;;;;;;;3.50;0.85;;;17.50;54.60;;;;;;6127173;23;20011;-89
2022/06/01 08:13:43;;;;;;;1.85;0.82;;;17.50;54.00;;;;;;6127393;23;20005;-91
2022/06/01 08:16:09;;;;;;;2.42;0.70;;;17.60;54.00;;;;;;6130099;23;20054;-91
2022/06/01 08:18:35;;;;;;;1.63;0.90;;;17.60;54.00;;;;;;6129678;23;20032;-90
2022/06/01 08:21:01;;;;;;;2.97;1.00;;;17.60;53.90;;;;;;6155465;23;20008;-91
2022/06/01 08:23:30;;;;;;;2.65;1.05;;;17.70;54.00;;;;;;6153190;23;20299;-91
2022/06/01 08:25:56;;;;;;;1.27;0.82;;;17.80;54.00;;;;;;6131703;23;20015;-89
2022/06/01 08:28:23;;;;;;;2.08;0.93;;;17.70;53.80;;;;;;6123720;23;20691;-90
2022/06/01 08:30:49;;;;;;;1.50;0.80;;;17.80;53.70;;;;;;6149746;23;20045;-91
2022/06/01 08:33:16;;;;;;;2.80;0.80;;;17.80;53.60;;;;;;6150594;23;20017;-93
2022/06/01 08:35:45;;;;;;;4.97;1.20;;;17.80;53.50;;;;;;6151620;23;20012;-90
2022/06/01 08:38:11;;;;;;;1.95;0.65;;;17.90;53.50;;;;;;6119811;23;20009;-89
2022/06/01 08:41:00;;;;;;;1.58;0.68;;;17.90;53.40;;;;;;6147258;23;20016;-90
2022/06/01 08:43:33;;;;;;;1.35;0.82;;;18.00;53.40;;;;;;6125667;23;20016;-89
2022/06/01 08:46:01;;;;;;;5.00;0.90;;;18.00;53.20;;;;;;6128573;23;20055;-90
2022/06/01 08:48:44;;;;;;;3.40;0.75;;;18.10;53.10;;;;;;6126886;23;20099;-90
2022/06/01 08:51:11;;;;;;;2.58;0.80;;;18.10;52.80;;;;;;6149638;23;20005;-90
2022/06/01 08:53:37;;;;;;;1.20;0.70;;;18.20;52.70;;;;;;6147887;23;20009;-90
2022/06/01 08:56:41;;;;;;;1.65;0.82;;;18.20;52.60;;;;;;6149786;23;20004;-89
2022/06/01 08:59:54;;;;;;;2.22;0.88;;;18.20;52.40;;;;;;6148180;23;20071;-88
2022/06/01 09:02:54;;;;;;;2.10;0.70;;;18.30;52.40;;;;;;6173902;23;20483;-87
2022/06/01 09:06:00;;;;;;;1.17;0.60;;;18.30;52.30;;;;;;6148733;23;20403;-90
2022/06/01 09:08:51;;;;;;;1.80;0.85;;;18.40;52.00;;;;;;6125711;23;20099;-87
2022/06/01 09:11:33;;;;;;;1.08;0.70;;;18.40;51.60;;;;;;6172499;23;20015;-92
2022/06/01 09:14:14;;;;;;;2.63;0.77;;;18.50;51.30;;;;;;6152296;23;20009;-91
2022/06/01 09:16:47;;;;;;;2.58;1.20;;;18.50;51.30;;;;;;6175617;23;20013;-91
2022/06/01 09:22:37;;;;;;;2.80;0.85;;;18.50;51.30;;;;;;6174187;23;20009;-91
2022/06/01 09:25:02;;;;;;;8.07;3.05;;;18.80;51.30;;;;;;6175455;23;20016;-89
2022/06/01 09:27:52;;;;;;;1.35;0.70;;;18.90;51.30;;;;;;6124926;23;20013;-88
2022/06/01 09:30:26;;;;;;;2.15;0.50;;;18.90;50.60;;;;;;6097673;23;20014;-91
2022/06/01 09:33:29;;;;;;;1.55;0.80;;;19.00;50.50;;;;;;6120626;23;20025;-90
2022/06/01 09:36:07;;;;;;;1.88;0.63;;;19.10;50.40;;;;;;6119599;23;20009;-90
2022/06/01 09:38:55;;;;;;;1.98;0.52;;;19.10;50.20;;;;;;6142879;23;20029;-91
2022/06/01 09:41:24;;;;;;;4.07;1.23;;;19.10;50.00;;;;;;6093441;23;20017;-90
2022/06/01 09:44:03;;;;;;;2.60;1.00;;;19.20;50.00;;;;;;6143173;23;20010;-90
2022/06/01 09:46:48;;;;;;;2.58;0.65;;;19.20;49.60;;;;;;6118041;23;20005;-90
2022/06/01 09:49:29;;;;;;;1.00;0.55;;;19.20;50.10;;;;;;6118163;23;20009;-90
2022/06/01 09:52:22;;;;;;;2.33;0.70;;;19.20;49.40;;;;;;6117200;23;20020;-91
2022/06/01 09:54:55;;;;;;;1.35;0.75;;;19.20;49.30;;;;;;6142888;23;20017;-92
2022/06/01 09:57:32;;;;;;;2.05;0.70;;;19.30;49.10;;;;;;6119711;23;20017;-90
2022/06/01 10:08:28;;;;;;;2.25;0.70;;;19.40;48.80;;;;;;6142839;23;20025;-89
2022/06/01 10:11:12;;;;;;;1.45;0.60;;;19.40;48.60;;;;;;6119522;23;20048;-90
2022/06/01 10:14:05;;;;;;;1.05;0.75;;;19.40;48.60;;;;;;6139318;23;20025;-87
2022/06/01 10:17:13;;;;;;;1.13;0.77;;;19.50;48.60;;;;;;6119190;23;20009;-88
2022/06/01 10:20:12;;;;;;;1.08;0.68;;;19.50;48.60;;;;;;6141448;23;20009;-88
2022/06/01 10:22:49;;;;;;;3.42;0.70;;;19.60;48.20;;;;;;6139477;23;20485;-88
2022/06/01 10:25:19;;;;;;;0.60;0.50;;;19.60;48.10;;;;;;6141616;23;20033;-88
2022/06/01 10:28:02;;;;;;;2.80;0.80;;;19.60;47.80;;;;;;6140748;23;20017;-88
2022/06/01 10:30:49;;;;;;;2.50;0.52;;;19.60;47.70;;;;;;6148855;23;20020;-88
2022/06/01 10:33:29;;;;;;;1.85;0.70;;;19.70;47.40;;;;;;6149820;23;20017;-88
2022/06/01 10:36:19;;;;;;;5.05;0.68;;;19.70;47.20;;;;;;6175844;23;20000;-87
2022/06/01 10:38:52;;;;;;;1.15;0.63;;;19.70;47.20;;;;;;6123825;23;20036;-87
2022/06/01 10:41:47;;;;;;;1.48;0.77;;;19.80;47.40;;;;;;6149078;23;20081;-87
2022/06/01 10:44:30;;;;;;;1.08;0.65;;;19.80;47.10;;;;;;6147313;23;20020;-87
2022/06/01 10:47:00;;;;;;;1.67;0.70;;;19.90;47.80;;;;;;6150167;23;20015;-87
2022/06/01 10:49:43;;;;;;;0.70;0.60;;;19.90;47.30;;;;;;6173412;23;20247;-88
2022/06/01 10:52:24;;;;;;;1.20;0.68;;;19.90;47.10;;;;;;6176346;23;20464;-88
2022/06/01 10:55:13;;;;;;;3.10;0.77;;;20.00;47.50;;;;;;6153548;23;20333;-88
2022/06/01 10:57:43;;;;;;;3.63;0.82;;;20.00;46.80;;;;;;6174732;23;20031;-86
2022/06/01 11:00:17;;;;;;;3.47;0.80;;;20.10;46.70;;;;;;6176478;23;20022;-86
2022/06/01 11:03:20;;;;;;;1.00;0.70;;;20.10;46.60;;;;;;6128206;23;20095;-88
2022/06/01 11:06:02;;;;;;;1.60;0.60;;;20.20;45.80;;;;;;6179207;23;20796;-89
2022/06/01 11:08:37;;;;;;;1.88;0.70;;;20.20;45.80;;;;;;6152698;23;20031;-88
2022/06/01 11:11:27;;;;;;;2.63;0.70;;;20.30;45.90;;;;;;6177495;23;20614;-89
2022/06/01 11:14:14;;;;;;;1.92;0.60;;;20.40;46.00;;;;;;6178230;23;20021;-89
2022/06/01 11:17:23;;;;;;;1.63;0.57;;;20.40;46.00;;;;;;6177141;23;20005;-88
2022/06/01 11:20:14;;;;;;;1.50;0.57;;;20.50;46.00;;;;;;6147270;23;20325;-89
2022/06/01 11:23:15;;;;;;;1.27;0.52;;;20.60;46.00;;;;;;6176330;23;20067;-90
2022/06/01 11:26:07;;;;;;;3.58;0.60;;;20.70;45.70;;;;;;6153894;23;20068;-89
2022/06/01 11:29:17;;;;;;;1.23;0.50;;;20.70;45.00;;;;;;6188051;23;20031;-89
2022/06/01 11:31:44;;;;;;;1.42;0.52;;;20.70;45.00;;;;;;6181402;23;20024;-90
2022/06/01 11:34:20;;;;;;;1.73;0.60;;;20.70;44.80;;;;;;6129139;23;20032;-91
2022/06/01 11:37:03;;;;;;;1.33;0.57;;;20.80;44.70;;;;;;6130536;23;20012;-90
2022/06/01 11:39:47;;;;;;;0.90;0.43;;;20.80;44.70;;;;;;6178824;23;20004;-90
2022/06/01 11:42:23;;;;;;;1.57;0.53;;;20.80;44.70;;;;;;6130966;23;20012;-90
2022/06/01 11:45:11;;;;;;;3.00;0.75;;;20.90;44.80;;;;;;6152974;23;20008;-90
2022/06/01 11:47:53;;;;;;;0.77;0.47;;;20.90;44.50;;;;;;6130004;23;20453;-90
2022/06/01 11:50:33;;;;;;;1.23;0.60;;;21.00;44.20;;;;;;6150758;23;20016;-91
2022/06/01 11:52:58;;;;;;;1.33;0.57;;;21.00;44.70;;;;;;6176824;23;20071;-89
2022/06/01 11:55:37;;;;;;;2.47;0.55;;;21.00;44.30;;;;;;6176756;23;20415;-91
2022/06/01 11:58:19;;;;;;;2.83;0.60;;;21.10;44.40;;;;;;6204763;23;20038;-91
2022/06/01 12:00:48;;;;;;;1.40;0.63;;;21.10;44.30;;;;;;6205329;23;20016;-91
2022/06/01 12:03:19;;;;;;;2.00;0.70;;;21.20;44.30;;;;;;6178129;23;20024;-90
2022/06/01 12:06:13;;;;;;;1.00;0.40;;;21.20;43.90;;;;;;6177580;23;20043;-90
2022/06/01 12:09:03;;;;;;;1.55;0.70;;;21.20;43.90;;;;;;6152071;23;20019;-91
2022/06/01 12:11:46;;;;;;;3.78;0.50;;;21.20;44.60;;;;;;6153937;23;20012;-89
2022/06/01 12:14:39;;;;;;;1.00;0.70;;;21.20;44.10;;;;;;6150478;23;20018;-89
2022/06/01 12:17:22;;;;;;;1.98;0.63;;;21.30;44.10;;;;;;6126316;23;20015;-90
2022/06/01 12:20:11;;;;;;;3.70;0.63;;;21.30;44.00;;;;;;6176499;23;20095;-91
2022/06/01 12:28:58;;;;;;;1.45;1.10;;;21.40;44.70;;;;;;6200616;23;20087;-90
2022/06/01 12:31:35;;;;;;;1.17;0.63;;;21.50;44.10;;;;;;6152393;23;20023;-89
2022/06/01 12:34:03;;;;;;;2.70;0.70;;;21.50;44.10;;;;;;6152266;23;20026;-88
2022/06/01 12:36:53;;;;;;;1.15;0.63;;;21.60;43.90;;;;;;6178356;23;20059;-88
2022/06/01 12:39:36;;;;;;;4.07;0.70;;;21.60;43.60;;;;;;6126451;23;20085;-88
2022/06/01 12:42:27;;;;;;;3.33;0.70;;;21.60;43.30;;;;;;6128891;23;20330;-89
2022/06/01 12:44:55;;;;;;;2.78;0.80;;;21.60;43.40;;;;;;6150578;23;20013;-88
2022/06/01 12:48:11;;;;;;;0.95;0.50;;;21.70;43.40;;;;;;6127982;23;20024;-89
2022/06/01 12:50:55;;;;;;;2.05;0.50;;;21.70;43.30;;;;;;6156967;23;20649;-87
2022/06/01 12:53:24;;;;;;;2.20;0.50;;;21.80;43.30;;;;;;6131028;23;20071;-89
2022/06/01 12:56:21;;;;;;;0.75;0.40;;;21.80;43.30;;;;;;6130314;23;20007;-90
2022/06/01 12:58:52;;;;;;;1.75;0.80;;;21.80;43.10;;;;;;6155991;23;20039;-89
2022/06/01 13:01:19;;;;;;;1.13;0.55;;;21.80;43.10;;;;;;6128816;23;20012;-88
2022/06/01 13:03:49;;;;;;;1.48;0.60;;;21.90;43.20;;;;;;6128242;23;20460;-89
2022/06/01 13:06:21;;;;;;;1.20;0.50;;;21.90;42.90;;;;;;6127884;23;20527;-89
2022/06/01 13:09:07;;;;;;;0.40;0.38;;;21.90;42.60;;;;;;6128140;23;20024;-89
2022/06/01 13:11:34;;;;;;;0.40;0.35;;;21.90;42.40;;;;;;6155575;23;20059;-88
2022/06/01 13:14:09;;;;;;;1.20;0.52;;;21.90;42.50;;;;;;6129229;23;20396;-89
2022/06/01 13:16:43;;;;;;;2.08;0.80;;;22.00;42.50;;;;;;6153726;23;20039;-89
2022/06/01 13:19:25;;;;;;;2.92;0.55;;;22.00;42.50;;;;;;6129277;23;20468;-89
2022/06/01 13:22:00;;;;;;;1.35;0.60;;;22.00;42.30;;;;;;6129920;23;20088;-89
2022/06/01 13:24:42;;;;;;;1.08;0.40;;;22.10;42.30;;;;;;6178373;23;20221;-90
2022/06/01 13:27:08;;;;;;;3.08;0.60;;;22.10;42.40;;;;;;6128769;23;20004;-89
2022/06/01 13:29:44;;;;;;;2.83;0.50;;;22.10;42.30;;;;;;6128759;23;20024;-90
2022/06/01 13:32:12;;;;;;;1.60;0.70;;;22.10;42.60;;;;;;6132377;23;20004;-88
2022/06/01 13:34:49;;;;;;;1.40;0.60;;;22.10;42.50;;;;;;6141293;23;20414;-89
2022/06/01 13:37:19;;;;;;;1.65;0.60;;;22.10;41.50;;;;;;6163312;23;20005;-90
2022/06/01 13:39:59;;;;;;;2.58;0.47;;;22.10;41.50;;;;;;6133415;23;20015;-90
2022/06/01 13:42:36;;;;;;;2.35;0.40;;;22.10;41.50;;;;;;6154937;23;20019;-90
2022/06/01 13:45:20;;;;;;;1.33;0.52;;;22.10;41.30;;;;;;6131733;23;20020;-88
2022/06/01 13:47:49;;;;;;;1.17;0.40;;;22.10;40.90;;;;;;6154352;23;20027;-90
2022/06/01 13:50:15;;;;;;;1.70;0.65;;;22.10;41.00;;;;;;6178903;23;20008;-89
2022/06/01 13:52:52;;;;;;;1.23;0.60;;;22.10;40.90;;;;;;6205230;23;20027;-89